sensor_id;sensor_type;location;lat;lon;timestamp;P1;durP1;ratioP1;P2;durP2;ratioP2
5801;SDS011;2927;49.366;8.530;2023-07-20T00:01:53;5.23;;;1.80;;
5801;SDS011;2927;49.366;8.530;2023-07-20T00:04:18;2.87;;;1.63;;
5801;SDS011;2927;49.366;8.530;2023-07-20T00:06:44;5.13;;;1.47;;
5801;SDS011;2927;49.366;8.530;2023-07-20T00:09:10;5.30;;;2.20;;
5801;SDS011;2927;49.366;8.530;2023-07-20T00:11:36;3.77;;;2.20;;
5801;SDS011;2927;49.366;8.530;2023-07-20T00:14:03;2.13;;;1.60;;
5801;SDS011;2927;49.366;8.530;2023-07-20T00:16:29;7.30;;;2.50;;
5801;SDS011;2927;49.366;8.530;2023-07-20T00:18:55;4.77;;;2.17;;
5801;SDS011;2927;49.366;8.530;2023-07-20T00:21:20;3.23;;;1.90;;
5801;SDS011;2927;49.366;8.530;2023-07-20T00:23:46;2.27;;;2.10;;
5801;SDS011;2927;49.366;8.530;2023-07-20T00:26:11;4.37;;;2.43;;
5801;SDS011;2927;49.366;8.530;2023-07-20T00:28:37;4.00;;;2.00;;
5801;SDS011;2927;49.366;8.530;2023-07-20T00:31:02;5.73;;;3.00;;
5801;SDS011;2927;49.366;8.530;2023-07-20T00:33:29;4.33;;;1.70;;
5801;SDS011;2927;49.366;8.530;2023-07-20T00:35:54;4.50;;;2.17;;
5801;SDS011;2927;49.366;8.530;2023-07-20T00:38:20;3.07;;;2.10;;
5801;SDS011;2927;49.366;8.530;2023-07-20T00:40:46;10.67;;;2.33;;
5801;SDS011;2927;49.366;8.530;2023-07-20T00:43:13;2.90;;;2.10;;
5801;SDS011;2927;49.366;8.530;2023-07-20T00:45:38;4.83;;;2.03;;
5801;SDS011;2927;49.366;8.530;2023-07-20T00:48:04;2.43;;;2.00;;
5801;SDS011;2927;49.366;8.530;2023-07-20T00:50:31;4.13;;;2.03;;
5801;SDS011;2927;49.366;8.530;2023-07-20T00:52:58;5.70;;;1.90;;
5801;SDS011;2927;49.366;8.530;2023-07-20T00:55:24;2.63;;;2.00;;
5801;SDS011;2927;49.366;8.530;2023-07-20T00:57:50;2.70;;;1.83;;
5801;SDS011;2927;49.366;8.530;2023-07-20T01:00:16;5.07;;;1.77;;
5801;SDS011;2927;49.366;8.530;2023-07-20T01:02:42;4.43;;;2.07;;
5801;SDS011;2927;49.366;8.530;2023-07-20T01:05:08;4.27;;;2.03;;
5801;SDS011;2927;49.366;8.530;2023-07-20T01:07:35;9.63;;;2.00;;
5801;SDS011;2927;49.366;8.530;2023-07-20T01:12:48;3.73;;;1.90;;
5801;SDS011;2927;49.366;8.530;2023-07-20T01:15:17;5.40;;;2.60;;
5801;SDS011;2927;49.366;8.530;2023-07-20T01:17:43;2.60;;;1.83;;
5801;SDS011;2927;49.366;8.530;2023-07-20T01:20:10;5.40;;;1.83;;
5801;SDS011;2927;49.366;8.530;2023-07-20T01:25:30;4.30;;;3.27;;
5801;SDS011;2927;49.366;8.530;2023-07-20T01:33:55;7.33;;;1.97;;
5801;SDS011;2927;49.366;8.530;2023-07-20T01:36:23;6.23;;;2.00;;
5801;SDS011;2927;49.366;8.530;2023-07-20T01:38:50;10.40;;;2.63;;
5801;SDS011;2927;49.366;8.530;2023-07-20T01:41:16;3.83;;;3.03;;
5801;SDS011;2927;49.366;8.530;2023-07-20T01:43:43;4.20;;;1.93;;
5801;SDS011;2927;49.366;8.530;2023-07-20T01:46:09;4.10;;;2.07;;
5801;SDS011;2927;49.366;8.530;2023-07-20T01:48:34;1.87;;;1.67;;
5801;SDS011;2927;49.366;8.530;2023-07-20T01:51:00;3.23;;;2.17;;
5801;SDS011;2927;49.366;8.530;2023-07-20T01:53:25;4.40;;;2.10;;
5801;SDS011;2927;49.366;8.530;2023-07-20T01:55:54;4.13;;;2.17;;
5801;SDS011;2927;49.366;8.530;2023-07-20T01:58:20;11.73;;;2.20;;
5801;SDS011;2927;49.366;8.530;2023-07-20T02:00:46;3.17;;;1.50;;
5801;SDS011;2927;49.366;8.530;2023-07-20T02:03:11;2.20;;;1.97;;
5801;SDS011;2927;49.366;8.530;2023-07-20T02:05:37;1.90;;;1.63;;
5801;SDS011;2927;49.366;8.530;2023-07-20T02:08:03;3.67;;;2.47;;
5801;SDS011;2927;49.366;8.530;2023-07-20T02:10:29;7.70;;;2.20;;
5801;SDS011;2927;49.366;8.530;2023-07-20T02:12:55;7.60;;;2.00;;
5801;SDS011;2927;49.366;8.530;2023-07-20T02:15:20;7.30;;;2.60;;
5801;SDS011;2927;49.366;8.530;2023-07-20T02:17:46;6.00;;;2.00;;
5801;SDS011;2927;49.366;8.530;2023-07-20T02:20:12;2.03;;;1.80;;
5801;SDS011;2927;49.366;8.530;2023-07-20T02:22:38;2.80;;;1.97;;
5801;SDS011;2927;49.366;8.530;2023-07-20T02:25:05;3.33;;;1.93;;
5801;SDS011;2927;49.366;8.530;2023-07-20T02:27:32;4.20;;;1.50;;
5801;SDS011;2927;49.366;8.530;2023-07-20T02:30:00;4.57;;;2.40;;
5801;SDS011;2927;49.366;8.530;2023-07-20T02:32:26;1.80;;;1.70;;
5801;SDS011;2927;49.366;8.530;2023-07-20T02:34:52;5.30;;;1.60;;
5801;SDS011;2927;49.366;8.530;2023-07-20T02:37:18;15.80;;;2.67;;
5801;SDS011;2927;49.366;8.530;2023-07-20T02:39:43;3.00;;;2.00;;
5801;SDS011;2927;49.366;8.530;2023-07-20T02:42:09;7.93;;;2.23;;
5801;SDS011;2927;49.366;8.530;2023-07-20T02:44:34;2.40;;;2.10;;
5801;SDS011;2927;49.366;8.530;2023-07-20T02:47:00;7.03;;;2.20;;
5801;SDS011;2927;49.366;8.530;2023-07-20T02:49:26;5.60;;;2.27;;
5801;SDS011;2927;49.366;8.530;2023-07-20T02:51:52;6.13;;;2.03;;
5801;SDS011;2927;49.366;8.530;2023-07-20T02:54:17;3.43;;;2.10;;
5801;SDS011;2927;49.366;8.530;2023-07-20T02:56:43;4.10;;;2.07;;
5801;SDS011;2927;49.366;8.530;2023-07-20T02:59:09;10.10;;;2.57;;
5801;SDS011;2927;49.366;8.530;2023-07-20T03:01:34;2.17;;;1.80;;
5801;SDS011;2927;49.366;8.530;2023-07-20T03:04:00;5.13;;;2.30;;
5801;SDS011;2927;49.366;8.530;2023-07-20T03:06:26;2.40;;;1.80;;
5801;SDS011;2927;49.366;8.530;2023-07-20T03:08:52;4.73;;;2.17;;
5801;SDS011;2927;49.366;8.530;2023-07-20T03:11:18;11.03;;;2.37;;
5801;SDS011;2927;49.366;8.530;2023-07-20T03:13:45;8.10;;;2.43;;
5801;SDS011;2927;49.366;8.530;2023-07-20T03:16:12;9.13;;;2.60;;
5801;SDS011;2927;49.366;8.530;2023-07-20T03:18:41;6.40;;;2.10;;
5801;SDS011;2927;49.366;8.530;2023-07-20T03:21:07;3.23;;;1.93;;
5801;SDS011;2927;49.366;8.530;2023-07-20T03:23:34;2.60;;;2.07;;
5801;SDS011;2927;49.366;8.530;2023-07-20T03:26:00;4.93;;;2.23;;
5801;SDS011;2927;49.366;8.530;2023-07-20T03:28:26;5.37;;;1.73;;
5801;SDS011;2927;49.366;8.530;2023-07-20T03:30:58;5.33;;;2.40;;
5801;SDS011;2927;49.366;8.530;2023-07-20T03:33:25;3.07;;;1.97;;
5801;SDS011;2927;49.366;8.530;2023-07-20T03:35:52;3.73;;;2.30;;
5801;SDS011;2927;49.366;8.530;2023-07-20T03:38:18;2.33;;;1.90;;
5801;SDS011;2927;49.366;8.530;2023-07-20T03:40:51;3.93;;;2.40;;
5801;SDS011;2927;49.366;8.530;2023-07-20T03:43:17;5.83;;;2.83;;
5801;SDS011;2927;49.366;8.530;2023-07-20T03:45:43;7.70;;;2.50;;
5801;SDS011;2927;49.366;8.530;2023-07-20T03:48:08;8.20;;;2.37;;
5801;SDS011;2927;49.366;8.530;2023-07-20T03:50:34;6.87;;;2.30;;
5801;SDS011;2927;49.366;8.530;2023-07-20T03:53:00;2.87;;;2.57;;
5801;SDS011;2927;49.366;8.530;2023-07-20T03:55:25;3.53;;;2.07;;
5801;SDS011;2927;49.366;8.530;2023-07-20T03:57:51;3.40;;;2.43;;
5801;SDS011;2927;49.366;8.530;2023-07-20T04:00:17;2.73;;;2.20;;
5801;SDS011;2927;49.366;8.530;2023-07-20T04:02:43;2.73;;;2.33;;
5801;SDS011;2927;49.366;8.530;2023-07-20T04:05:08;5.77;;;2.70;;
5801;SDS011;2927;49.366;8.530;2023-07-20T04:07:34;5.30;;;2.30;;
5801;SDS011;2927;49.366;8.530;2023-07-20T04:10:00;4.70;;;3.50;;
5801;SDS011;2927;49.366;8.530;2023-07-20T04:12:25;13.20;;;3.23;;
5801;SDS011;2927;49.366;8.530;2023-07-20T04:14:51;4.87;;;2.33;;
5801;SDS011;2927;49.366;8.530;2023-07-20T04:17:17;10.93;;;3.27;;
5801;SDS011;2927;49.366;8.530;2023-07-20T04:19:43;6.63;;;2.93;;
5801;SDS011;2927;49.366;8.530;2023-07-20T04:22:09;4.00;;;2.70;;
5801;SDS011;2927;49.366;8.530;2023-07-20T04:24:34;4.40;;;2.90;;
5801;SDS011;2927;49.366;8.530;2023-07-20T04:27:00;3.60;;;2.47;;
5801;SDS011;2927;49.366;8.530;2023-07-20T04:29:25;10.77;;;2.50;;
5801;SDS011;2927;49.366;8.530;2023-07-20T04:31:51;8.80;;;3.43;;
5801;SDS011;2927;49.366;8.530;2023-07-20T04:34:16;10.63;;;4.57;;
5801;SDS011;2927;49.366;8.530;2023-07-20T04:36:42;3.93;;;2.43;;
5801;SDS011;2927;49.366;8.530;2023-07-20T04:39:09;13.90;;;3.00;;
5801;SDS011;2927;49.366;8.530;2023-07-20T04:41:35;8.70;;;4.03;;
5801;SDS011;2927;49.366;8.530;2023-07-20T04:44:00;3.90;;;2.43;;
5801;SDS011;2927;49.366;8.530;2023-07-20T04:46:26;8.43;;;3.00;;
5801;SDS011;2927;49.366;8.530;2023-07-20T04:48:52;4.60;;;2.60;;
5801;SDS011;2927;49.366;8.530;2023-07-20T04:51:17;8.90;;;3.10;;
5801;SDS011;2927;49.366;8.530;2023-07-20T04:53:45;6.33;;;3.60;;
5801;SDS011;2927;49.366;8.530;2023-07-20T04:56:12;6.70;;;4.00;;
5801;SDS011;2927;49.366;8.530;2023-07-20T04:58:37;6.03;;;4.20;;
5801;SDS011;2927;49.366;8.530;2023-07-20T05:01:03;8.37;;;4.03;;
5801;SDS011;2927;49.366;8.530;2023-07-20T05:03:28;15.53;;;3.60;;
5801;SDS011;2927;49.366;8.530;2023-07-20T05:05:54;7.53;;;3.30;;
5801;SDS011;2927;49.366;8.530;2023-07-20T05:08:20;6.50;;;3.17;;
5801;SDS011;2927;49.366;8.530;2023-07-20T05:10:47;5.83;;;3.37;;
5801;SDS011;2927;49.366;8.530;2023-07-20T05:13:12;7.03;;;3.93;;
5801;SDS011;2927;49.366;8.530;2023-07-20T05:15:38;8.93;;;3.77;;
5801;SDS011;2927;49.366;8.530;2023-07-20T05:18:04;14.00;;;3.53;;
5801;SDS011;2927;49.366;8.530;2023-07-20T05:20:30;4.93;;;3.50;;
5801;SDS011;2927;49.366;8.530;2023-07-20T05:22:56;6.87;;;3.10;;
5801;SDS011;2927;49.366;8.530;2023-07-20T05:25:22;7.93;;;2.97;;
5801;SDS011;2927;49.366;8.530;2023-07-20T05:27:48;5.30;;;2.83;;
5801;SDS011;2927;49.366;8.530;2023-07-20T05:30:14;6.13;;;3.20;;
5801;SDS011;2927;49.366;8.530;2023-07-20T05:32:39;11.20;;;3.80;;
5801;SDS011;2927;49.366;8.530;2023-07-20T05:35:05;5.90;;;3.80;;
5801;SDS011;2927;49.366;8.530;2023-07-20T05:37:31;6.47;;;3.67;;
5801;SDS011;2927;49.366;8.530;2023-07-20T05:39:58;5.43;;;3.70;;
5801;SDS011;2927;49.366;8.530;2023-07-20T05:42:23;4.30;;;3.70;;
5801;SDS011;2927;49.366;8.530;2023-07-20T05:44:49;11.13;;;3.00;;
5801;SDS011;2927;49.366;8.530;2023-07-20T05:47:17;9.43;;;4.20;;
5801;SDS011;2927;49.366;8.530;2023-07-20T05:49:43;9.07;;;4.50;;
5801;SDS011;2927;49.366;8.530;2023-07-20T05:52:08;5.73;;;3.63;;
5801;SDS011;2927;49.366;8.530;2023-07-20T05:54:34;9.63;;;3.13;;
5801;SDS011;2927;49.366;8.530;2023-07-20T05:57:00;8.93;;;3.73;;
5801;SDS011;2927;49.366;8.530;2023-07-20T05:59:26;7.77;;;3.40;;
5801;SDS011;2927;49.366;8.530;2023-07-20T06:01:54;3.80;;;3.20;;
5801;SDS011;2927;49.366;8.530;2023-07-20T06:04:20;5.03;;;3.40;;
5801;SDS011;2927;49.366;8.530;2023-07-20T06:06:45;5.03;;;3.80;;
5801;SDS011;2927;49.366;8.530;2023-07-20T06:09:11;3.80;;;2.70;;
5801;SDS011;2927;49.366;8.530;2023-07-20T06:11:40;4.23;;;3.10;;
5801;SDS011;2927;49.366;8.530;2023-07-20T06:14:05;3.47;;;3.17;;
5801;SDS011;2927;49.366;8.530;2023-07-20T06:16:31;4.13;;;2.90;;
5801;SDS011;2927;49.366;8.530;2023-07-20T06:18:57;4.20;;;2.80;;
5801;SDS011;2927;49.366;8.530;2023-07-20T06:21:23;2.70;;;2.30;;
5801;SDS011;2927;49.366;8.530;2023-07-20T06:23:49;4.00;;;3.30;;
5801;SDS011;2927;49.366;8.530;2023-07-20T06:26:14;4.80;;;2.77;;
5801;SDS011;2927;49.366;8.530;2023-07-20T06:28:40;5.27;;;2.83;;
5801;SDS011;2927;49.366;8.530;2023-07-20T06:31:06;2.77;;;2.57;;
5801;SDS011;2927;49.366;8.530;2023-07-20T06:33:31;2.83;;;2.53;;
5801;SDS011;2927;49.366;8.530;2023-07-20T06:35:57;2.90;;;2.50;;
5801;SDS011;2927;49.366;8.530;2023-07-20T06:38:23;2.80;;;2.30;;
5801;SDS011;2927;49.366;8.530;2023-07-20T06:40:52;6.87;;;2.30;;
5801;SDS011;2927;49.366;8.530;2023-07-20T06:43:17;6.63;;;2.17;;
5801;SDS011;2927;49.366;8.530;2023-07-20T06:45:43;3.00;;;2.33;;
5801;SDS011;2927;49.366;8.530;2023-07-20T06:48:10;2.53;;;2.00;;
5801;SDS011;2927;49.366;8.530;2023-07-20T06:50:36;4.20;;;2.17;;
5801;SDS011;2927;49.366;8.530;2023-07-20T06:53:01;7.03;;;2.70;;
5801;SDS011;2927;49.366;8.530;2023-07-20T06:55:28;5.17;;;2.00;;
5801;SDS011;2927;49.366;8.530;2023-07-20T06:57:54;4.05;;;2.10;;
5801;SDS011;2927;49.366;8.530;2023-07-20T07:00:20;2.75;;;2.33;;
5801;SDS011;2927;49.366;8.530;2023-07-20T07:02:45;4.05;;;1.88;;
5801;SDS011;2927;49.366;8.530;2023-07-20T07:05:11;3.40;;;1.65;;
5801;SDS011;2927;49.366;8.530;2023-07-20T07:07:38;3.40;;;2.30;;
5801;SDS011;2927;49.366;8.530;2023-07-20T07:10:04;2.75;;;2.05;;
5801;SDS011;2927;49.366;8.530;2023-07-20T07:12:30;2.38;;;2.00;;
5801;SDS011;2927;49.366;8.530;2023-07-20T07:14:56;4.78;;;1.85;;
5801;SDS011;2927;49.366;8.530;2023-07-20T07:17:21;2.45;;;1.83;;
5801;SDS011;2927;49.366;8.530;2023-07-20T07:19:47;3.30;;;2.03;;
5801;SDS011;2927;49.366;8.530;2023-07-20T07:22:13;4.60;;;1.70;;
5801;SDS011;2927;49.366;8.530;2023-07-20T07:24:38;1.60;;;1.48;;
5801;SDS011;2927;49.366;8.530;2023-07-20T07:27:06;4.95;;;1.55;;
5801;SDS011;2927;49.366;8.530;2023-07-20T07:29:33;3.15;;;1.83;;
5801;SDS011;2927;49.366;8.530;2023-07-20T07:31:58;1.92;;;1.80;;
5801;SDS011;2927;49.366;8.530;2023-07-20T07:34:24;4.05;;;1.80;;
5801;SDS011;2927;49.366;8.530;2023-07-20T07:36:50;2.95;;;1.42;;
5801;SDS011;2927;49.366;8.530;2023-07-20T07:39:16;2.58;;;1.70;;
5801;SDS011;2927;49.366;8.530;2023-07-20T07:41:41;2.55;;;1.95;;
5801;SDS011;2927;49.366;8.530;2023-07-20T07:44:07;2.50;;;1.42;;
5801;SDS011;2927;49.366;8.530;2023-07-20T07:46:34;1.73;;;1.63;;
5801;SDS011;2927;49.366;8.530;2023-07-20T07:48:59;1.73;;;1.38;;
5801;SDS011;2927;49.366;8.530;2023-07-20T07:51:25;2.45;;;1.90;;
5801;SDS011;2927;49.366;8.530;2023-07-20T07:53:52;1.75;;;1.65;;
5801;SDS011;2927;49.366;8.530;2023-07-20T07:56:17;5.88;;;1.80;;
5801;SDS011;2927;49.366;8.530;2023-07-20T07:58:47;1.48;;;1.38;;
5801;SDS011;2927;49.366;8.530;2023-07-20T08:01:13;1.73;;;1.52;;
5801;SDS011;2927;49.366;8.530;2023-07-20T08:03:39;1.92;;;1.52;;
5801;SDS011;2927;49.366;8.530;2023-07-20T08:06:05;2.72;;;1.60;;
5801;SDS011;2927;49.366;8.530;2023-07-20T08:08:31;2.80;;;1.65;;
5801;SDS011;2927;49.366;8.530;2023-07-20T08:10:57;1.50;;;1.40;;
5801;SDS011;2927;49.366;8.530;2023-07-20T08:13:23;1.90;;;1.40;;
5801;SDS011;2927;49.366;8.530;2023-07-20T08:15:49;1.77;;;1.67;;
5801;SDS011;2927;49.366;8.530;2023-07-20T08:18:18;1.23;;;1.23;;
5801;SDS011;2927;49.366;8.530;2023-07-20T08:20:44;2.35;;;1.40;;
5801;SDS011;2927;49.366;8.530;2023-07-20T08:23:10;0.95;;;0.95;;
5801;SDS011;2927;49.366;8.530;2023-07-20T08:25:36;1.60;;;1.50;;
5801;SDS011;2927;49.366;8.530;2023-07-20T08:28:04;4.90;;;1.50;;
5801;SDS011;2927;49.366;8.530;2023-07-20T08:30:39;2.05;;;1.10;;
5801;SDS011;2927;49.366;8.530;2023-07-20T08:33:06;3.00;;;1.48;;
5801;SDS011;2927;49.366;8.530;2023-07-20T08:35:32;1.45;;;1.35;;
5801;SDS011;2927;49.366;8.530;2023-07-20T08:37:58;1.80;;;1.70;;
5801;SDS011;2927;49.366;8.530;2023-07-20T08:40:24;2.83;;;1.77;;
5801;SDS011;2927;49.366;8.530;2023-07-20T08:42:49;1.67;;;1.23;;
5801;SDS011;2927;49.366;8.530;2023-07-20T08:45:15;1.95;;;1.30;;
5801;SDS011;2927;49.366;8.530;2023-07-20T08:47:42;2.20;;;1.30;;
5801;SDS011;2927;49.366;8.530;2023-07-20T08:50:10;1.52;;;1.42;;
5801;SDS011;2927;49.366;8.530;2023-07-20T08:52:37;4.03;;;1.75;;
5801;SDS011;2927;49.366;8.530;2023-07-20T08:55:03;1.88;;;1.60;;
5801;SDS011;2927;49.366;8.530;2023-07-20T08:57:30;1.77;;;1.70;;
5801;SDS011;2927;49.366;8.530;2023-07-20T08:59:58;1.52;;;1.40;;
5801;SDS011;2927;49.366;8.530;2023-07-20T09:02:29;3.95;;;1.63;;
5801;SDS011;2927;49.366;8.530;2023-07-20T09:04:58;2.22;;;1.80;;
5801;SDS011;2927;49.366;8.530;2023-07-20T09:07:23;5.10;;;1.48;;
5801;SDS011;2927;49.366;8.530;2023-07-20T09:09:50;4.65;;;1.40;;
5801;SDS011;2927;49.366;8.530;2023-07-20T09:12:15;1.80;;;1.70;;
5801;SDS011;2927;49.366;8.530;2023-07-20T09:14:44;3.72;;;1.40;;
5801;SDS011;2927;49.366;8.530;2023-07-20T09:17:13;1.77;;;1.67;;
5801;SDS011;2927;49.366;8.530;2023-07-20T09:19:45;3.78;;;1.52;;
5801;SDS011;2927;49.366;8.530;2023-07-20T09:22:12;1.98;;;1.70;;
5801;SDS011;2927;49.366;8.530;2023-07-20T09:24:37;1.80;;;1.70;;
5801;SDS011;2927;49.366;8.530;2023-07-20T09:27:04;1.73;;;1.63;;
5801;SDS011;2927;49.366;8.530;2023-07-20T09:29:29;2.20;;;1.50;;
5801;SDS011;2927;49.366;8.530;2023-07-20T09:34:42;3.03;;;1.65;;
5801;SDS011;2927;49.366;8.530;2023-07-20T09:37:09;2.70;;;1.60;;
5801;SDS011;2927;49.366;8.530;2023-07-20T09:39:41;2.10;;;1.38;;
5801;SDS011;2927;49.366;8.530;2023-07-20T09:42:08;1.33;;;0.93;;
5801;SDS011;2927;49.366;8.530;2023-07-20T09:44:35;3.75;;;1.80;;
5801;SDS011;2927;49.366;8.530;2023-07-20T09:47:02;1.65;;;1.55;;
5801;SDS011;2927;49.366;8.530;2023-07-20T09:49:30;2.10;;;1.60;;
5801;SDS011;2927;49.366;8.530;2023-07-20T09:51:57;2.58;;;1.80;;
5801;SDS011;2927;49.366;8.530;2023-07-20T09:54:23;2.05;;;1.05;;
5801;SDS011;2927;49.366;8.530;2023-07-20T09:56:51;1.30;;;1.20;;
5801;SDS011;2927;49.366;8.530;2023-07-20T09:59:17;1.35;;;1.25;;
5801;SDS011;2927;49.366;8.530;2023-07-20T10:01:43;1.55;;;1.45;;
5801;SDS011;2927;49.366;8.530;2023-07-20T10:04:10;1.40;;;1.30;;
5801;SDS011;2927;49.366;8.530;2023-07-20T10:06:39;2.17;;;1.98;;
5801;SDS011;2927;49.366;8.530;2023-07-20T10:09:07;1.52;;;1.40;;
5801;SDS011;2927;49.366;8.530;2023-07-20T10:11:35;1.52;;;1.20;;
5801;SDS011;2927;49.366;8.530;2023-07-20T10:14:03;2.72;;;1.23;;
5801;SDS011;2927;49.366;8.530;2023-07-20T10:16:32;1.30;;;1.20;;
5801;SDS011;2927;49.366;8.530;2023-07-20T10:19:11;1.38;;;1.27;;
5801;SDS011;2927;49.366;8.530;2023-07-20T10:21:57;2.15;;;1.58;;
5801;SDS011;2927;49.366;8.530;2023-07-20T10:24:27;2.00;;;1.85;;
5801;SDS011;2927;49.366;8.530;2023-07-20T10:26:55;1.70;;;1.58;;
5801;SDS011;2927;49.366;8.530;2023-07-20T10:29:21;1.77;;;1.67;;
5801;SDS011;2927;49.366;8.530;2023-07-20T10:31:48;1.92;;;1.83;;
5801;SDS011;2927;49.366;8.530;2023-07-20T10:34:14;2.90;;;1.52;;
5801;SDS011;2927;49.366;8.530;2023-07-20T10:36:44;1.88;;;1.40;;
5801;SDS011;2927;49.366;8.530;2023-07-20T10:39:31;2.83;;;1.58;;
5801;SDS011;2927;49.366;8.530;2023-07-20T10:42:00;2.63;;;1.98;;
5801;SDS011;2927;49.366;8.530;2023-07-20T10:44:27;2.97;;;1.38;;
5801;SDS011;2927;49.366;8.530;2023-07-20T10:46:58;1.60;;;1.30;;
5801;SDS011;2927;49.366;8.530;2023-07-20T10:49:25;1.33;;;1.27;;
5801;SDS011;2927;49.366;8.530;2023-07-20T10:51:58;2.30;;;1.50;;
5801;SDS011;2927;49.366;8.530;2023-07-20T10:56:54;3.97;;;1.95;;
5801;SDS011;2927;49.366;8.530;2023-07-20T11:01:50;1.77;;;1.67;;
5801;SDS011;2927;49.366;8.530;2023-07-20T11:04:37;2.75;;;1.67;;
5801;SDS011;2927;49.366;8.530;2023-07-20T11:07:03;2.65;;;1.73;;
5801;SDS011;2927;49.366;8.530;2023-07-20T11:09:32;3.35;;;1.67;;
5801;SDS011;2927;49.366;8.530;2023-07-20T11:12:10;3.67;;;2.00;;
5801;SDS011;2927;49.366;8.530;2023-07-20T11:14:40;3.38;;;1.65;;
5801;SDS011;2927;49.366;8.530;2023-07-20T11:17:10;1.40;;;1.30;;
5801;SDS011;2927;49.366;8.530;2023-07-20T11:19:38;3.60;;;1.35;;
5801;SDS011;2927;49.366;8.530;2023-07-20T11:22:05;1.48;;;1.38;;
5801;SDS011;2927;49.366;8.530;2023-07-20T11:24:36;3.13;;;1.67;;
5801;SDS011;2927;49.366;8.530;2023-07-20T11:27:04;1.65;;;1.55;;
5801;SDS011;2927;49.366;8.530;2023-07-20T11:29:30;3.63;;;1.05;;
5801;SDS011;2927;49.366;8.530;2023-07-20T11:31:56;2.75;;;1.63;;
5801;SDS011;2927;49.366;8.530;2023-07-20T11:34:22;1.98;;;1.20;;
5801;SDS011;2927;49.366;8.530;2023-07-20T11:36:48;2.72;;;2.40;;
5801;SDS011;2927;49.366;8.530;2023-07-20T11:39:15;4.18;;;1.40;;
5801;SDS011;2927;49.366;8.530;2023-07-20T11:41:49;5.10;;;1.60;;
5801;SDS011;2927;49.366;8.530;2023-07-20T11:44:16;3.60;;;1.55;;
5801;SDS011;2927;49.366;8.530;2023-07-20T11:46:43;3.42;;;1.95;;
5801;SDS011;2927;49.366;8.530;2023-07-20T11:49:12;2.25;;;1.35;;
5801;SDS011;2927;49.366;8.530;2023-07-20T11:51:38;1.88;;;1.75;;
5801;SDS011;2927;49.366;8.530;2023-07-20T11:54:05;2.47;;;1.70;;
5801;SDS011;2927;49.366;8.530;2023-07-20T11:56:32;4.03;;;1.70;;
5801;SDS011;2927;49.366;8.530;2023-07-20T11:58:58;4.38;;;1.77;;
5801;SDS011;2927;49.366;8.530;2023-07-20T12:01:25;2.22;;;1.73;;
5801;SDS011;2927;49.366;8.530;2023-07-20T12:03:57;3.25;;;1.63;;
5801;SDS011;2927;49.366;8.530;2023-07-20T12:06:24;3.38;;;1.60;;
5801;SDS011;2927;49.366;8.530;2023-07-20T12:08:50;2.13;;;1.67;;
5801;SDS011;2927;49.366;8.530;2023-07-20T12:11:30;1.63;;;1.52;;
5801;SDS011;2927;49.366;8.530;2023-07-20T12:13:57;4.60;;;1.70;;
5801;SDS011;2927;49.366;8.530;2023-07-20T12:16:26;1.73;;;1.63;;
5801;SDS011;2927;49.366;8.530;2023-07-20T12:19:05;1.60;;;1.33;;
5801;SDS011;2927;49.366;8.530;2023-07-20T12:21:33;9.98;;;1.55;;
5801;SDS011;2927;49.366;8.530;2023-07-20T12:24:01;2.92;;;2.10;;
5801;SDS011;2927;49.366;8.530;2023-07-20T12:26:29;1.35;;;1.23;;
5801;SDS011;2927;49.366;8.530;2023-07-20T12:28:55;3.45;;;1.80;;
5801;SDS011;2927;49.366;8.530;2023-07-20T12:31:21;2.28;;;1.73;;
5801;SDS011;2927;49.366;8.530;2023-07-20T12:33:49;2.75;;;2.08;;
5801;SDS011;2927;49.366;8.530;2023-07-20T12:36:15;1.67;;;1.58;;
5801;SDS011;2927;49.366;8.530;2023-07-20T12:38:41;5.35;;;1.70;;
5801;SDS011;2927;49.366;8.530;2023-07-20T12:41:10;3.78;;;1.42;;
5801;SDS011;2927;49.366;8.530;2023-07-20T12:43:46;5.93;;;1.55;;
5801;SDS011;2927;49.366;8.530;2023-07-20T12:46:12;1.92;;;1.40;;
5801;SDS011;2927;49.366;8.530;2023-07-20T12:48:38;3.72;;;1.42;;
5801;SDS011;2927;49.366;8.530;2023-07-20T12:51:06;2.65;;;1.40;;
5801;SDS011;2927;49.366;8.530;2023-07-20T12:53:35;2.65;;;1.40;;
5801;SDS011;2927;49.366;8.530;2023-07-20T12:56:00;3.70;;;1.48;;
5801;SDS011;2927;49.366;8.530;2023-07-20T12:58:46;2.03;;;1.10;;
5801;SDS011;2927;49.366;8.530;2023-07-20T13:01:14;7.30;;;1.47;;
5801;SDS011;2927;49.366;8.530;2023-07-20T13:03:40;2.17;;;1.40;;
5801;SDS011;2927;49.366;8.530;2023-07-20T13:06:06;3.88;;;1.38;;
5801;SDS011;2927;49.366;8.530;2023-07-20T13:08:31;1.30;;;1.30;;
5801;SDS011;2927;49.366;8.530;2023-07-20T13:10:57;5.17;;;1.60;;
5801;SDS011;2927;49.366;8.530;2023-07-20T13:13:23;3.20;;;1.30;;
5801;SDS011;2927;49.366;8.530;2023-07-20T13:15:48;1.53;;;1.30;;
5801;SDS011;2927;49.366;8.530;2023-07-20T13:18:15;2.93;;;1.60;;
5801;SDS011;2927;49.366;8.530;2023-07-20T13:20:40;2.50;;;1.30;;
5801;SDS011;2927;49.366;8.530;2023-07-20T13:23:06;2.10;;;1.27;;
5801;SDS011;2927;49.366;8.530;2023-07-20T13:25:32;2.97;;;1.47;;
5801;SDS011;2927;49.366;8.530;2023-07-20T13:27:58;1.85;;;1.42;;
5801;SDS011;2927;49.366;8.530;2023-07-20T13:30:23;1.53;;;1.30;;
5801;SDS011;2927;49.366;8.530;2023-07-20T13:32:49;3.70;;;1.37;;
5801;SDS011;2927;49.366;8.530;2023-07-20T13:35:14;2.70;;;1.40;;
5801;SDS011;2927;49.366;8.530;2023-07-20T13:37:41;1.50;;;1.40;;
5801;SDS011;2927;49.366;8.530;2023-07-20T13:40:06;2.80;;;1.43;;
5801;SDS011;2927;49.366;8.530;2023-07-20T13:42:38;1.13;;;0.87;;
5801;SDS011;2927;49.366;8.530;2023-07-20T13:45:05;2.20;;;1.37;;
5801;SDS011;2927;49.366;8.530;2023-07-20T13:47:31;1.77;;;1.30;;
5801;SDS011;2927;49.366;8.530;2023-07-20T13:49:56;2.67;;;1.30;;
5801;SDS011;2927;49.366;8.530;2023-07-20T13:52:22;3.63;;;1.40;;
5801;SDS011;2927;49.366;8.530;2023-07-20T13:54:48;1.63;;;1.53;;
5801;SDS011;2927;49.366;8.530;2023-07-20T13:57:14;1.73;;;1.63;;
5801;SDS011;2927;49.366;8.530;2023-07-20T13:59:43;1.90;;;1.73;;
5801;SDS011;2927;49.366;8.530;2023-07-20T14:02:09;2.00;;;1.77;;
5801;SDS011;2927;49.366;8.530;2023-07-20T14:04:35;8.63;;;1.60;;
5801;SDS011;2927;49.366;8.530;2023-07-20T14:07:01;4.93;;;1.33;;
5801;SDS011;2927;49.366;8.530;2023-07-20T14:09:26;3.63;;;0.93;;
5801;SDS011;2927;49.366;8.530;2023-07-20T14:11:52;2.70;;;1.50;;
5801;SDS011;2927;49.366;8.530;2023-07-20T14:14:17;2.30;;;1.30;;
5801;SDS011;2927;49.366;8.530;2023-07-20T14:16:43;1.53;;;1.43;;
5801;SDS011;2927;49.366;8.530;2023-07-20T14:19:09;1.50;;;1.40;;
5801;SDS011;2927;49.366;8.530;2023-07-20T14:21:35;10.17;;;1.83;;
5801;SDS011;2927;49.366;8.530;2023-07-20T14:24:00;1.40;;;1.30;;
5801;SDS011;2927;49.366;8.530;2023-07-20T14:26:27;2.30;;;1.27;;
5801;SDS011;2927;49.366;8.530;2023-07-20T14:28:52;2.53;;;0.90;;
5801;SDS011;2927;49.366;8.530;2023-07-20T14:31:18;7.50;;;1.63;;
5801;SDS011;2927;49.366;8.530;2023-07-20T14:33:45;4.68;;;1.40;;
5801;SDS011;2927;49.366;8.530;2023-07-20T14:36:11;3.80;;;1.60;;
5801;SDS011;2927;49.366;8.530;2023-07-20T14:38:36;3.80;;;1.80;;
5801;SDS011;2927;49.366;8.530;2023-07-20T14:41:02;2.20;;;1.70;;
5801;SDS011;2927;49.366;8.530;2023-07-20T14:43:28;3.23;;;1.93;;
5801;SDS011;2927;49.366;8.530;2023-07-20T14:45:54;2.97;;;1.77;;
5801;SDS011;2927;49.366;8.530;2023-07-20T14:48:20;1.40;;;1.30;;
5801;SDS011;2927;49.366;8.530;2023-07-20T14:50:46;1.57;;;1.47;;
5801;SDS011;2927;49.366;8.530;2023-07-20T14:53:15;7.78;;;1.27;;
5801;SDS011;2927;49.366;8.530;2023-07-20T14:55:41;4.32;;;1.63;;
5801;SDS011;2927;49.366;8.530;2023-07-20T14:58:09;1.63;;;1.50;;
5801;SDS011;2927;49.366;8.530;2023-07-20T15:00:37;1.53;;;1.40;;
5801;SDS011;2927;49.366;8.530;2023-07-20T15:03:03;2.23;;;1.70;;
5801;SDS011;2927;49.366;8.530;2023-07-20T15:05:30;1.43;;;1.30;;
5801;SDS011;2927;49.366;8.530;2023-07-20T15:07:56;1.77;;;1.63;;
5801;SDS011;2927;49.366;8.530;2023-07-20T15:10:22;1.27;;;1.17;;
5801;SDS011;2927;49.366;8.530;2023-07-20T15:12:48;2.40;;;1.33;;
5801;SDS011;2927;49.366;8.530;2023-07-20T15:15:14;2.00;;;1.10;;
5801;SDS011;2927;49.366;8.530;2023-07-20T15:17:41;1.47;;;1.37;;
5801;SDS011;2927;49.366;8.530;2023-07-20T15:20:10;1.50;;;1.40;;
5801;SDS011;2927;49.366;8.530;2023-07-20T15:22:37;1.00;;;1.00;;
5801;SDS011;2927;49.366;8.530;2023-07-20T15:25:04;1.93;;;1.30;;
5801;SDS011;2927;49.366;8.530;2023-07-20T15:27:30;1.30;;;1.20;;
5801;SDS011;2927;49.366;8.530;2023-07-20T15:29:56;5.73;;;1.60;;
5801;SDS011;2927;49.366;8.530;2023-07-20T15:32:22;0.93;;;0.93;;